Time;durP1;ratioP1;P1;durP2;ratioP2;P2;SDS_P1;SDS_P2;PMS_P1;PMS_P2;Temp;Humidity;BMP_temperature;BMP_pressure;BME280_temperature;BME280_humidity;BME280_pressure;Samples;Min_cycle;Max_cycle;Signal;HPM_P1;HPM_P2
2022/12/02 00:01:41;;;;;;;71.18;19.13;;;2.00;99.90;;;;;;5098477;28;20040;-67
2022/12/02 00:04:26;;;;;;;67.90;17.25;;;2.10;99.90;;;;;;5098545;28;20020;-67
2022/12/02 00:06:55;;;;;;;75.63;19.92;;;2.10;99.90;;;;;;5098542;28;20031;-67
2022/12/02 00:09:42;;;;;;;70.55;18.70;;;2.10;99.90;;;;;;5098660;28;20029;-67
2022/12/02 00:12:23;;;;;;;81.85;18.45;;;2.10;99.90;;;;;;5098435;28;20043;-67
2022/12/02 00:15:02;;;;;;;64.03;17.98;;;2.10;99.90;;;;;;5098966;28;20073;-67
2022/12/02 00:17:30;;;;;;;77.78;19.15;;;2.10;99.90;;;;;;5098186;28;20024;-67
2022/12/02 00:19:57;;;;;;;73.97;16.63;;;2.00;99.90;;;;;;5098405;28;20023;-67
2022/12/02 00:22:25;;;;;;;63.08;17.65;;;2.00;99.90;;;;;;5098171;28;20065;-67
2022/12/02 00:24:52;;;;;;;68.47;16.58;;;2.00;99.90;;;;;;5098505;28;20044;-67
2022/12/02 00:27:20;;;;;;;59.42;15.02;;;2.00;99.90;;;;;;5098652;28;20020;-67
2022/12/02 00:29:47;;;;;;;67.03;19.08;;;2.00;99.90;;;;;;5098239;28;20095;-67
2022/12/02 00:32:14;;;;;;;70.00;16.83;;;2.00;99.90;;;;;;5098564;28;20447;-67
2022/12/02 00:34:41;;;;;;;58.90;16.13;;;2.00;99.90;;;;;;5097950;28;20297;-67
2022/12/02 00:37:08;;;;;;;58.15;15.90;;;2.00;99.90;;;;;;5098498;28;20043;-67
2022/12/02 00:39:36;;;;;;;63.00;16.55;;;2.00;99.90;;;;;;5098548;28;20031;-67
2022/12/02 00:42:03;;;;;;;59.72;17.33;;;2.00;99.90;;;;;;5079887;28;20016;-67
2022/12/02 00:47:16;;;;;;;70.55;20.33;;;2.00;99.90;;;;;;5082829;28;20066;-67
2022/12/02 00:49:44;;;;;;;58.47;16.85;;;2.00;99.90;;;;;;5098345;28;20027;-67
2022/12/02 00:52:11;;;;;;;66.07;17.70;;;2.00;99.90;;;;;;5098195;28;20026;-67
2022/12/02 00:54:38;;;;;;;64.07;16.77;;;2.00;99.90;;;;;;5098203;28;20016;-67
2022/12/02 00:57:05;;;;;;;52.25;17.48;;;1.90;99.90;;;;;;5097553;28;20104;-67
2022/12/02 00:59:33;;;;;;;64.47;19.17;;;1.90;99.90;;;;;;5079460;28;20024;-67
2022/12/02 01:02:00;;;;;;;58.80;16.55;;;1.90;99.90;;;;;;5075953;28;20342;-67
2022/12/02 01:04:27;;;;;;;60.08;17.30;;;1.90;99.90;;;;;;5077546;28;20020;-67
2022/12/02 01:06:54;;;;;;;63.80;17.67;;;1.90;99.90;;;;;;5077691;28;20020;-67
2022/12/02 01:09:22;;;;;;;66.05;17.45;;;1.90;99.90;;;;;;5077137;28;20075;-67
2022/12/02 01:11:50;;;;;;;50.90;14.98;;;1.90;99.90;;;;;;5077617;28;20024;-67
2022/12/02 01:14:18;;;;;;;78.05;17.70;;;1.90;99.90;;;;;;5077730;28;20052;-67
2022/12/02 01:16:45;;;;;;;55.97;16.48;;;1.90;99.90;;;;;;5076972;28;20024;-67
2022/12/02 01:19:12;;;;;;;58.72;16.45;;;1.90;99.90;;;;;;5075728;28;20107;-67
2022/12/02 01:21:40;;;;;;;46.78;16.08;;;1.90;99.90;;;;;;5077450;28;20021;-67
2022/12/02 01:24:07;;;;;;;56.25;15.32;;;1.90;99.90;;;;;;5077048;28;20016;-67
2022/12/02 01:26:34;;;;;;;51.08;16.65;;;1.90;99.90;;;;;;5077409;28;20359;-67
2022/12/02 01:29:02;;;;;;;60.40;16.50;;;1.80;99.90;;;;;;5076813;28;20032;-67
2022/12/02 01:31:30;;;;;;;45.83;15.48;;;1.90;99.90;;;;;;5076751;28;20033;-67
2022/12/02 01:33:57;;;;;;;45.28;13.23;;;1.80;99.90;;;;;;5076884;28;20024;-67
2022/12/02 01:36:25;;;;;;;50.88;14.40;;;1.80;99.90;;;;;;5076553;28;20340;-67
2022/12/02 01:38:52;;;;;;;58.88;14.57;;;1.80;99.90;;;;;;5076486;28;20392;-67
2022/12/02 01:41:20;;;;;;;50.65;14.43;;;1.80;99.90;;;;;;5076614;28;20301;-67
2022/12/02 01:43:47;;;;;;;45.10;14.65;;;1.80;99.90;;;;;;5076724;28;20344;-67
2022/12/02 01:46:14;;;;;;;39.85;13.40;;;1.80;99.90;;;;;;5076581;28;20016;-67
2022/12/02 01:48:42;;;;;;;41.10;13.15;;;1.80;99.90;;;;;;5076587;28;20052;-67
2022/12/02 01:51:09;;;;;;;44.38;14.07;;;1.80;99.90;;;;;;5076457;28;20028;-67
2022/12/02 01:53:36;;;;;;;37.15;12.02;;;1.80;99.90;;;;;;5077146;28;20078;-67
2022/12/02 01:56:04;;;;;;;42.28;13.40;;;1.80;99.90;;;;;;5075407;28;20312;-67
2022/12/02 01:58:31;;;;;;;38.72;12.48;;;1.80;99.90;;;;;;5076989;28;20104;-67
2022/12/02 02:00:59;;;;;;;37.95;13.57;;;1.80;99.90;;;;;;5075111;28;20044;-67
2022/12/02 02:03:26;;;;;;;44.67;14.35;;;1.80;99.90;;;;;;5076535;28;20051;-67
2022/12/02 02:05:54;;;;;;;31.75;12.48;;;1.70;99.90;;;;;;5076316;28;20048;-67
2022/12/02 02:08:22;;;;;;;40.08;13.73;;;1.80;99.90;;;;;;5076412;28;20025;-67
2022/12/02 02:10:49;;;;;;;42.33;13.52;;;1.80;99.90;;;;;;5076323;28;20103;-67
2022/12/02 02:13:17;;;;;;;44.70;13.65;;;1.80;99.90;;;;;;5076347;28;20028;-67
2022/12/02 02:15:45;;;;;;;42.42;12.73;;;1.70;99.90;;;;;;5075205;28;20033;-67
2022/12/02 02:18:12;;;;;;;38.33;12.52;;;1.70;99.90;;;;;;5076207;28;20035;-67
2022/12/02 02:20:41;;;;;;;38.15;12.52;;;1.70;99.90;;;;;;5076395;28;20012;-67
2022/12/02 02:23:14;;;;;;;30.95;10.95;;;1.70;99.90;;;;;;5076254;28;20024;-67
2022/12/02 02:25:45;;;;;;;35.72;11.05;;;1.70;99.90;;;;;;5076378;28;20320;-67
2022/12/02 02:28:13;;;;;;;35.00;11.23;;;1.70;99.90;;;;;;5076874;28;20026;-67
2022/12/02 02:30:40;;;;;;;31.33;10.43;;;1.70;99.90;;;;;;5076119;28;20028;-67
2022/12/02 02:33:11;;;;;;;29.27;10.80;;;1.70;99.90;;;;;;5076135;28;20061;-67
2022/12/02 02:35:41;;;;;;;36.95;10.60;;;1.70;99.90;;;;;;5076034;28;20027;-67
2022/12/02 02:38:10;;;;;;;33.20;11.10;;;1.70;99.90;;;;;;5076107;28;20111;-67
2022/12/02 02:40:38;;;;;;;33.33;10.05;;;1.60;99.90;;;;;;5076044;28;20024;-67
2022/12/02 02:43:06;;;;;;;36.72;11.23;;;1.60;99.90;;;;;;5076062;28;20016;-67
2022/12/02 02:45:37;;;;;;;34.13;11.80;;;1.60;99.90;;;;;;5076028;28;20045;-67
2022/12/02 02:48:06;;;;;;;34.08;11.55;;;1.50;99.90;;;;;;5076568;28;20028;-67
2022/12/02 02:50:35;;;;;;;30.15;10.52;;;1.50;99.90;;;;;;5078486;28;20027;-67
2022/12/02 02:53:04;;;;;;;32.72;11.88;;;1.40;99.90;;;;;;5079648;28;20024;-67
2022/12/02 02:55:32;;;;;;;30.83;11.80;;;1.40;99.90;;;;;;5079590;28;20024;-67
2022/12/02 02:58:15;;;;;;;30.63;10.40;;;1.40;99.90;;;;;;5080064;28;20025;-67
2022/12/02 03:00:58;;;;;;;33.05;10.40;;;1.40;99.90;;;;;;5087234;28;20381;-67
2022/12/02 03:03:32;;;;;;;32.22;11.75;;;1.30;99.90;;;;;;5100398;28;20031;-70
2022/12/02 03:06:00;;;;;;;29.25;11.55;;;1.30;99.90;;;;;;5100485;28;20304;-67
2022/12/02 03:08:30;;;;;;;30.35;11.52;;;1.20;99.90;;;;;;5100415;28;20024;-67
2022/12/02 03:11:00;;;;;;;33.28;12.27;;;1.20;99.90;;;;;;5099633;28;20103;-67
2022/12/02 03:13:29;;;;;;;30.98;9.98;;;1.20;99.90;;;;;;5099646;28;20055;-67
2022/12/02 03:15:57;;;;;;;34.88;11.43;;;1.20;99.90;;;;;;5099554;28;20020;-67
2022/12/02 03:18:25;;;;;;;30.27;9.40;;;1.10;99.90;;;;;;5099883;28;20313;-67
2022/12/02 03:20:52;;;;;;;29.05;9.98;;;1.20;99.90;;;;;;5099533;28;20416;-67
2022/12/02 03:23:20;;;;;;;35.38;11.48;;;1.20;99.90;;;;;;5099744;28;20027;-67
2022/12/02 03:25:47;;;;;;;32.35;11.68;;;1.10;99.90;;;;;;5099285;28;20032;-67
2022/12/02 03:28:15;;;;;;;27.98;9.43;;;1.10;99.90;;;;;;5099862;28;20101;-67
2022/12/02 03:30:43;;;;;;;38.95;12.05;;;1.10;99.90;;;;;;5099280;28;20470;-67
2022/12/02 03:33:11;;;;;;;33.38;11.60;;;1.10;99.90;;;;;;5099725;28;20285;-67
2022/12/02 03:35:38;;;;;;;38.80;11.85;;;1.10;99.90;;;;;;5099097;28;20412;-67
2022/12/02 03:38:05;;;;;;;39.17;13.02;;;1.10;99.90;;;;;;5099055;28;20031;-67
2022/12/02 03:40:33;;;;;;;35.72;12.20;;;1.20;99.90;;;;;;5099111;28;20016;-67
2022/12/02 03:43:00;;;;;;;34.58;11.80;;;1.10;99.90;;;;;;5099327;28;20117;-67
2022/12/02 03:45:28;;;;;;;41.92;13.88;;;1.10;99.90;;;;;;5099709;28;20316;-67
2022/12/02 03:47:55;;;;;;;35.08;11.63;;;1.10;99.90;;;;;;5099461;28;20081;-67
2022/12/02 03:50:22;;;;;;;36.17;11.90;;;1.20;99.90;;;;;;5098854;28;20104;-67
2022/12/02 03:52:50;;;;;;;38.97;12.93;;;1.20;99.90;;;;;;5099385;28;20082;-67
2022/12/02 03:55:17;;;;;;;45.13;14.13;;;1.20;99.90;;;;;;5099513;28;20044;-67
2022/12/02 03:57:45;;;;;;;45.83;13.63;;;1.20;99.90;;;;;;5099216;28;20024;-67
2022/12/02 04:00:14;;;;;;;46.50;13.00;;;1.10;99.90;;;;;;5098195;28;20047;-67
2022/12/02 04:02:41;;;;;;;42.20;12.63;;;1.10;99.90;;;;;;5098656;28;20016;-67
2022/12/02 04:05:09;;;;;;;37.72;12.82;;;1.20;99.90;;;;;;5099009;28;20054;-67
2022/12/02 04:07:37;;;;;;;39.45;12.15;;;1.20;99.90;;;;;;5080612;28;20028;-67
2022/12/02 04:10:05;;;;;;;41.65;13.27;;;1.10;99.90;;;;;;5098541;28;20016;-67
2022/12/02 04:12:32;;;;;;;41.83;12.95;;;1.20;99.90;;;;;;5099001;28;20042;-67
2022/12/02 04:14:59;;;;;;;41.78;13.13;;;1.20;99.90;;;;;;5098832;28;20312;-67
2022/12/02 04:17:27;;;;;;;45.33;14.68;;;1.10;99.90;;;;;;5080320;28;20028;-67
2022/12/02 04:19:54;;;;;;;43.42;14.18;;;1.20;99.90;;;;;;5096414;28;20020;-67
2022/12/02 04:22:22;;;;;;;42.78;14.48;;;1.10;99.90;;;;;;5098520;28;20420;-67
2022/12/02 04:24:50;;;;;;;40.13;14.18;;;1.20;99.90;;;;;;5098379;28;20046;-67
2022/12/02 04:27:17;;;;;;;38.67;12.95;;;1.20;99.90;;;;;;5098686;28;20050;-67
2022/12/02 04:29:44;;;;;;;48.75;14.18;;;1.10;99.90;;;;;;5080208;28;20032;-67
2022/12/02 04:32:11;;;;;;;52.80;15.48;;;1.20;99.90;;;;;;5098618;28;20286;-67
2022/12/02 04:34:39;;;;;;;48.30;16.50;;;1.20;99.90;;;;;;5080140;28;20050;-67
2022/12/02 04:37:06;;;;;;;56.42;16.40;;;1.20;99.90;;;;;;5098488;28;20428;-67
2022/12/02 04:39:34;;;;;;;55.30;15.20;;;1.10;99.90;;;;;;5097793;28;20416;-67
2022/12/02 04:42:01;;;;;;;55.05;17.55;;;1.10;99.90;;;;;;5097866;28;20016;-67
2022/12/02 04:44:28;;;;;;;52.75;16.58;;;1.10;99.90;;;;;;5098398;28;20020;-67
2022/12/02 04:46:56;;;;;;;59.88;19.48;;;1.10;99.90;;;;;;5098358;28;20020;-67
2022/12/02 04:49:23;;;;;;;60.70;19.05;;;1.10;99.90;;;;;;5097729;28;20035;-67
2022/12/02 04:51:51;;;;;;;58.92;17.40;;;1.20;99.90;;;;;;5098221;28;20053;-67
2022/12/02 04:54:18;;;;;;;56.78;18.40;;;1.10;99.90;;;;;;5097612;28;20024;-67
2022/12/02 04:56:46;;;;;;;69.68;20.85;;;1.10;99.90;;;;;;5079693;28;20024;-67
2022/12/02 04:59:13;;;;;;;66.45;20.08;;;1.10;99.90;;;;;;5097661;28;20031;-67
2022/12/02 05:01:40;;;;;;;67.85;20.40;;;1.10;99.90;;;;;;5076027;28;20047;-67
2022/12/02 05:04:08;;;;;;;60.90;21.70;;;1.10;99.90;;;;;;5077172;28;20102;-67
2022/12/02 05:06:35;;;;;;;63.08;19.65;;;1.10;99.90;;;;;;5077145;28;20027;-67
2022/12/02 05:09:03;;;;;;;80.13;25.13;;;1.00;99.90;;;;;;5077283;28;20056;-67
2022/12/02 05:11:30;;;;;;;68.15;20.80;;;1.00;99.90;;;;;;5075687;28;20028;-67
2022/12/02 05:13:58;;;;;;;71.07;22.45;;;1.00;99.90;;;;;;5077224;28;20108;-67
2022/12/02 05:16:25;;;;;;;74.95;23.52;;;1.10;99.90;;;;;;5076993;28;20100;-67
2022/12/02 05:18:53;;;;;;;66.15;21.63;;;1.10;99.90;;;;;;5076872;28;20025;-67
2022/12/02 05:21:20;;;;;;;80.03;25.20;;;1.00;99.90;;;;;;5075742;28;20029;-67
2022/12/02 05:23:47;;;;;;;78.40;24.88;;;1.10;99.90;;;;;;5076912;28;20051;-67
2022/12/02 05:26:15;;;;;;;74.80;23.80;;;1.00;99.90;;;;;;5075872;28;20412;-67
2022/12/02 05:28:43;;;;;;;83.55;26.30;;;1.00;99.90;;;;;;5077403;28;20416;-67
2022/12/02 05:31:10;;;;;;;80.53;24.10;;;1.00;99.90;;;;;;5077453;28;20308;-67
2022/12/02 05:33:38;;;;;;;87.25;23.08;;;1.00;99.90;;;;;;5077434;28;20427;-67
2022/12/02 05:36:05;;;;;;;78.82;23.92;;;1.00;99.90;;;;;;5076666;28;20029;-67
2022/12/02 05:38:32;;;;;;;74.35;23.00;;;1.00;99.90;;;;;;5076692;28;20029;-67
2022/12/02 05:41:00;;;;;;;74.75;23.10;;;1.00;99.90;;;;;;5077205;28;20373;-67
2022/12/02 05:43:27;;;;;;;93.28;26.90;;;1.00;99.90;;;;;;5076782;28;20070;-67
2022/12/02 05:45:58;;;;;;;77.53;25.15;;;1.00;99.90;;;;;;5076590;28;20017;-67
2022/12/02 05:48:26;;;;;;;81.28;26.77;;;1.00;99.90;;;;;;5076618;28;20047;-67
2022/12/02 05:50:54;;;;;;;78.40;26.73;;;1.00;99.90;;;;;;5076493;28;20020;-67
2022/12/02 05:53:26;;;;;;;89.45;27.65;;;1.00;99.90;;;;;;5075596;28;20039;-67
2022/12/02 05:55:56;;;;;;;87.18;27.35;;;1.00;99.90;;;;;;5076488;28;20027;-67
2022/12/02 05:58:24;;;;;;;81.40;25.58;;;1.00;99.90;;;;;;5075538;28;20035;-67
2022/12/02 06:00:57;;;;;;;83.22;25.25;;;1.00;99.90;;;;;;5084852;28;20067;-67
2022/12/02 06:03:26;;;;;;;93.38;25.55;;;1.00;99.90;;;;;;5096789;28;20435;-67
2022/12/02 06:05:53;;;;;;;75.03;25.00;;;1.00;99.90;;;;;;5097082;28;20020;-67
2022/12/02 06:08:41;;;;;;;72.00;24.30;;;1.00;99.90;;;;;;5096861;28;20044;-67
2022/12/02 06:11:38;;;;;;;78.05;25.27;;;1.00;99.90;;;;;;5096414;28;20411;-67
2022/12/02 06:14:17;;;;;;;85.68;25.88;;;1.00;99.90;;;;;;5084025;28;20040;-67
2022/12/02 06:16:56;;;;;;;85.18;25.27;;;1.00;99.90;;;;;;5096472;28;20421;-67
2022/12/02 06:19:43;;;;;;;80.03;24.98;;;1.00;99.90;;;;;;5096298;28;20336;-67
2022/12/02 06:22:22;;;;;;;80.05;24.67;;;1.00;99.90;;;;;;5096981;28;20034;-67
2022/12/02 06:24:50;;;;;;;74.95;23.77;;;1.00;99.90;;;;;;5099910;28;20020;-67
2022/12/02 06:27:18;;;;;;;76.22;24.42;;;1.00;99.90;;;;;;5101005;28;20027;-68
2022/12/02 06:29:56;;;;;;;75.32;24.35;;;1.00;99.90;;;;;;5100395;28;20032;-67
2022/12/02 06:32:29;;;;;;;74.50;24.60;;;1.00;99.90;;;;;;5082674;28;20362;-68
2022/12/02 06:34:56;;;;;;;65.78;22.20;;;1.10;99.90;;;;;;5082315;28;20043;-67
2022/12/02 06:37:31;;;;;;;78.95;24.42;;;1.00;99.90;;;;;;5100816;28;20104;-67
2022/12/02 06:39:59;;;;;;;82.85;25.02;;;1.10;99.90;;;;;;5100280;28;20032;-67
2022/12/02 06:42:31;;;;;;;79.53;24.90;;;1.10;99.90;;;;;;5100814;28;20016;-67
2022/12/02 06:45:20;;;;;;;71.13;23.88;;;1.00;99.90;;;;;;5100338;28;20416;-67
2022/12/02 06:47:56;;;;;;;72.55;23.48;;;1.10;99.90;;;;;;5100843;28;20319;-67
2022/12/02 06:50:34;;;;;;;64.53;23.00;;;1.10;99.90;;;;;;5099889;28;20028;-67
2022/12/02 06:53:37;;;;;;;78.07;22.98;;;1.10;99.90;;;;;;5100751;28;20413;-67
2022/12/02 06:56:17;;;;;;;65.72;22.05;;;1.10;99.90;;;;;;5100444;28;20103;-69
2022/12/02 06:58:46;;;;;;;71.57;22.77;;;1.00;99.90;;;;;;5100429;28;20312;-67
2022/12/02 07:01:40;;;;;;;72.30;24.88;;;1.10;99.90;;;;;;5099910;28;20044;-67
2022/12/02 07:04:29;;;;;;;72.25;22.67;;;1.10;99.90;;;;;;5100283;28;20020;-67
2022/12/02 07:07:17;;;;;;;66.10;21.60;;;1.10;99.90;;;;;;5099657;28;20043;-67
2022/12/02 07:09:49;;;;;;;67.55;22.00;;;1.10;99.90;;;;;;5100315;28;20117;-68
2022/12/02 07:12:22;;;;;;;77.15;23.58;;;1.10;99.90;;;;;;5081667;28;20032;-69
2022/12/02 07:15:17;;;;;;;73.55;24.15;;;1.10;99.90;;;;;;5100320;28;20024;-72
2022/12/02 07:17:44;;;;;;;66.53;22.92;;;1.10;99.90;;;;;;5099758;28;20027;-69
2022/12/02 07:20:30;;;;;;;62.75;24.23;;;1.10;99.90;;;;;;5099446;28;20020;-69
2022/12/02 07:23:14;;;;;;;68.07;24.77;;;1.10;99.90;;;;;;5099845;28;20020;-71
2022/12/02 07:25:47;;;;;;;55.95;21.00;;;1.10;99.90;;;;;;5081418;28;20034;-71
2022/12/02 07:28:23;;;;;;;63.45;22.45;;;1.10;99.90;;;;;;5081442;28;20035;-71
2022/12/02 07:31:14;;;;;;;63.13;24.52;;;1.10;99.90;;;;;;5099280;28;20324;-73
2022/12/02 07:33:41;;;;;;;69.93;23.63;;;1.10;99.90;;;;;;5081502;28;20032;-72
2022/12/02 07:36:08;;;;;;;69.60;24.42;;;1.10;99.90;;;;;;5098366;28;20107;-72
2022/12/02 07:38:36;;;;;;;65.68;23.42;;;1.10;99.90;;;;;;5081295;28;20035;-72
2022/12/02 07:41:04;;;;;;;69.30;22.95;;;1.10;99.90;;;;;;5081081;28;20297;-71
2022/12/02 07:43:32;;;;;;;64.20;21.45;;;1.10;99.90;;;;;;5099206;28;20020;-70
2022/12/02 07:46:00;;;;;;;70.00;24.38;;;1.10;99.90;;;;;;5080969;28;20416;-70
2022/12/02 07:48:27;;;;;;;69.93;24.42;;;1.10;99.90;;;;;;5099532;28;20032;-74
2022/12/02 07:50:54;;;;;;;61.03;21.58;;;1.10;99.90;;;;;;5098140;28;20078;-68
2022/12/02 07:53:22;;;;;;;63.67;23.48;;;1.20;99.90;;;;;;5098874;28;20048;-70
2022/12/02 07:55:49;;;;;;;65.35;22.27;;;1.20;99.90;;;;;;5099336;28;20498;-71
2022/12/02 07:58:16;;;;;;;66.60;24.40;;;1.20;99.90;;;;;;5080858;28;20032;-72
2022/12/02 08:00:44;;;;;;;57.42;23.83;;;1.20;99.90;;;;;;5098873;28;20048;-71
2022/12/02 08:03:11;;;;;;;57.90;22.95;;;1.20;99.90;;;;;;5098952;28;20024;-73
2022/12/02 08:05:39;;;;;;;53.80;23.15;;;1.20;99.90;;;;;;5098832;28;20052;-72
2022/12/02 08:08:06;;;;;;;56.15;22.38;;;1.30;99.90;;;;;;5099077;28;20440;-76
2022/12/02 08:10:33;;;;;;;58.50;22.67;;;1.20;99.90;;;;;;5098514;28;20366;-75
2022/12/02 08:13:01;;;;;;;59.47;22.48;;;1.30;99.90;;;;;;5098759;28;20297;-74
2022/12/02 08:15:29;;;;;;;58.95;20.73;;;1.30;99.90;;;;;;5080414;28;20031;-75
2022/12/02 08:17:56;;;;;;;59.58;22.70;;;1.30;99.90;;;;;;5098487;28;20327;-72
2022/12/02 08:20:24;;;;;;;52.67;21.40;;;1.30;99.90;;;;;;5098552;28;20031;-73
2022/12/02 08:22:52;;;;;;;54.88;21.30;;;1.30;99.90;;;;;;5098614;28;20031;-74
2022/12/02 08:25:20;;;;;;;46.53;19.05;;;1.30;99.90;;;;;;5098240;28;20320;-72
2022/12/02 08:27:47;;;;;;;51.70;21.85;;;1.30;99.90;;;;;;5098351;28;20107;-73
2022/12/02 08:30:16;;;;;;;58.03;21.50;;;1.40;99.90;;;;;;5080173;28;20170;-72
2022/12/02 08:32:44;;;;;;;56.70;21.73;;;1.40;99.90;;;;;;5080190;28;20039;-72
2022/12/02 08:35:11;;;;;;;49.45;21.27;;;1.40;99.90;;;;;;5080035;28;20412;-72
2022/12/02 08:37:40;;;;;;;52.17;20.65;;;1.40;99.90;;;;;;5097889;28;20028;-69
2022/12/02 08:40:08;;;;;;;47.08;19.73;;;1.40;99.90;;;;;;5098282;28;20027;-68
2022/12/02 08:42:36;;;;;;;52.65;21.40;;;1.40;99.90;;;;;;5079966;28;20050;-71
2022/12/02 08:45:03;;;;;;;47.15;20.00;;;1.40;99.90;;;;;;5098474;28;20092;-67
2022/12/02 08:47:31;;;;;;;50.22;21.23;;;1.40;99.90;;;;;;5096798;28;20026;-67
2022/12/02 08:49:58;;;;;;;54.35;22.27;;;1.40;99.90;;;;;;5097910;28;20034;-67
2022/12/02 08:52:26;;;;;;;56.55;22.02;;;1.40;99.90;;;;;;5080041;28;20034;-68
2022/12/02 08:54:55;;;;;;;59.28;22.27;;;1.40;99.90;;;;;;5098230;28;20031;-70
2022/12/02 08:57:22;;;;;;;57.05;20.90;;;1.40;99.90;;;;;;5098153;28;20020;-69
2022/12/02 08:59:49;;;;;;;50.45;22.05;;;1.40;99.90;;;;;;5098184;28;20063;-67
2022/12/02 09:02:17;;;;;;;52.25;20.95;;;1.40;99.90;;;;;;5097239;28;20051;-67
2022/12/02 09:04:44;;;;;;;46.45;19.35;;;1.40;99.90;;;;;;5097717;28;20017;-67
2022/12/02 09:07:11;;;;;;;48.45;19.40;;;1.40;99.90;;;;;;5097425;28;20050;-67
2022/12/02 09:09:39;;;;;;;52.90;19.38;;;1.40;99.90;;;;;;5079381;28;20082;-67
2022/12/02 09:12:07;;;;;;;44.10;19.05;;;1.40;99.90;;;;;;5097324;28;20120;-67
2022/12/02 09:14:34;;;;;;;42.83;18.45;;;1.40;99.90;;;;;;5097312;28;20416;-66
2022/12/02 09:17:02;;;;;;;41.05;17.65;;;1.40;99.90;;;;;;5097226;28;20024;-67
2022/12/02 09:19:29;;;;;;;42.78;18.00;;;1.40;99.90;;;;;;5097119;28;20034;-67
2022/12/02 09:21:56;;;;;;;46.47;17.83;;;1.40;99.90;;;;;;5079123;28;20042;-66
2022/12/02 09:24:24;;;;;;;43.53;19.08;;;1.40;99.90;;;;;;5097890;28;20328;-66
2022/12/02 09:26:51;;;;;;;36.55;17.38;;;1.40;99.90;;;;;;5097619;28;20016;-67
2022/12/02 09:29:18;;;;;;;42.75;18.08;;;1.50;99.90;;;;;;5097073;28;20020;-66
2022/12/02 09:31:46;;;;;;;41.30;17.83;;;1.50;99.90;;;;;;5097325;28;20142;-68
2022/12/02 09:34:13;;;;;;;37.55;16.30;;;1.50;99.90;;;;;;5097671;28;20098;-69
2022/12/02 09:36:41;;;;;;;42.05;17.77;;;1.50;99.90;;;;;;5096973;28;20046;-68
2022/12/02 09:39:08;;;;;;;39.10;17.50;;;1.50;99.90;;;;;;5097138;28;20374;-67
2022/12/02 09:41:37;;;;;;;37.72;15.90;;;1.60;99.90;;;;;;5078958;28;20412;-67
2022/12/02 09:44:05;;;;;;;39.33;17.38;;;1.60;99.90;;;;;;5097591;28;20029;-66
2022/12/02 09:46:32;;;;;;;38.30;16.70;;;1.60;99.90;;;;;;5096825;28;20012;-67
2022/12/02 09:49:01;;;;;;;39.65;16.42;;;1.60;99.90;;;;;;5097377;28;20016;-67
2022/12/02 09:51:31;;;;;;;38.97;16.27;;;1.60;99.90;;;;;;5096724;28;20371;-67
2022/12/02 09:53:59;;;;;;;39.75;15.57;;;1.60;99.90;;;;;;5097177;28;20028;-67
2022/12/02 09:56:28;;;;;;;35.97;15.40;;;1.60;99.90;;;;;;5096635;28;20028;-75
2022/12/02 09:58:56;;;;;;;39.65;16.13;;;1.60;99.90;;;;;;5096282;28;20049;-67
2022/12/02 10:01:27;;;;;;;38.55;16.33;;;1.60;99.90;;;;;;5096431;28;20044;-67
2022/12/02 10:03:55;;;;;;;32.08;15.27;;;1.60;99.90;;;;;;5097333;28;20021;-67
2022/12/02 10:06:28;;;;;;;37.67;14.38;;;1.60;99.90;;;;;;5096531;28;20012;-67
2022/12/02 10:08:56;;;;;;;37.72;16.42;;;1.60;99.90;;;;;;5096628;28;20416;-67
2022/12/02 10:11:27;;;;;;;32.88;14.40;;;1.70;99.90;;;;;;5078671;28;20024;-67
2022/12/02 10:13:57;;;;;;;38.42;16.30;;;1.60;99.90;;;;;;5096701;28;20054;-68
2022/12/02 10:16:28;;;;;;;39.88;17.17;;;1.60;99.90;;;;;;5078998;28;20447;-68
2022/12/02 10:19:02;;;;;;;37.47;15.38;;;1.70;99.90;;;;;;5096703;28;20056;-68
2022/12/02 10:21:29;;;;;;;32.78;15.30;;;1.60;99.90;;;;;;5078486;28;20107;-67
2022/12/02 10:24:03;;;;;;;41.17;17.50;;;1.60;99.90;;;;;;5096972;28;20099;-67
2022/12/02 10:26:52;;;;;;;41.83;18.25;;;1.60;99.90;;;;;;5096444;28;20016;-67
2022/12/02 10:29:30;;;;;;;42.20;17.55;;;1.60;99.90;;;;;;5096686;28;20016;-67
2022/12/02 10:32:20;;;;;;;42.85;16.60;;;1.60;99.90;;;;;;5096583;28;20102;-68
2022/12/02 10:35:06;;;;;;;41.97;17.55;;;1.60;99.90;;;;;;5096346;28;20031;-74
2022/12/02 10:37:34;;;;;;;37.80;17.02;;;1.70;99.90;;;;;;5096325;28;20042;-67
2022/12/02 10:40:17;;;;;;;43.38;18.33;;;1.70;99.90;;;;;;5078307;28;20034;-68
2022/12/02 10:42:45;;;;;;;46.03;19.60;;;1.70;99.90;;;;;;5096475;28;20039;-68
2022/12/02 10:45:23;;;;;;;39.72;18.42;;;1.70;99.90;;;;;;5096232;28;20016;-67
2022/12/02 10:48:13;;;;;;;38.90;16.83;;;1.70;99.90;;;;;;5079095;28;20070;-67
2022/12/02 10:50:40;;;;;;;40.13;17.88;;;1.70;99.90;;;;;;5096247;28;20020;-67
2022/12/02 10:53:14;;;;;;;44.30;18.83;;;1.70;99.90;;;;;;5096816;28;20016;-68
2022/12/02 10:55:43;;;;;;;41.50;17.38;;;1.70;99.90;;;;;;5096258;28;20023;-68
2022/12/02 10:58:20;;;;;;;45.33;18.63;;;1.70;99.90;;;;;;5096081;28;20024;-68
2022/12/02 11:00:48;;;;;;;38.75;17.13;;;1.70;99.90;;;;;;5096498;28;20048;-68
2022/12/02 11:03:16;;;;;;;45.65;19.60;;;1.70;99.90;;;;;;5096834;28;20404;-68
2022/12/02 11:05:44;;;;;;;39.08;16.70;;;1.80;99.90;;;;;;5095921;28;20016;-68
2022/12/02 11:08:25;;;;;;;42.00;17.63;;;1.70;99.90;;;;;;5096073;28;20301;-68
2022/12/02 11:11:13;;;;;;;47.67;17.20;;;1.70;99.90;;;;;;5097527;28;20028;-68
2022/12/02 11:13:56;;;;;;;39.20;17.27;;;1.70;99.90;;;;;;5100133;28;20024;-68
2022/12/02 11:16:27;;;;;;;37.60;15.63;;;1.70;99.90;;;;;;5100122;28;20020;-68
2022/12/02 11:19:23;;;;;;;39.38;17.45;;;1.70;99.90;;;;;;5100056;28;20029;-67
2022/12/02 11:21:50;;;;;;;38.03;16.45;;;1.70;99.90;;;;;;5099760;28;20028;-67
2022/12/02 11:24:27;;;;;;;42.42;17.27;;;1.70;99.90;;;;;;5099584;28;20020;-67
2022/12/02 11:27:02;;;;;;;44.42;17.90;;;1.70;99.90;;;;;;5100231;28;20044;-67
2022/12/02 11:29:34;;;;;;;46.72;19.02;;;1.70;99.90;;;;;;5100098;28;20388;-69
2022/12/02 11:32:22;;;;;;;40.47;16.33;;;1.70;99.90;;;;;;5099306;28;20099;-67
2022/12/02 11:34:52;;;;;;;38.50;18.20;;;1.60;99.90;;;;;;5099840;28;20356;-68
2022/12/02 11:37:32;;;;;;;41.85;19.65;;;1.60;99.90;;;;;;5099781;28;20016;-67
2022/12/02 11:40:05;;;;;;;38.47;17.60;;;1.60;99.90;;;;;;5081119;28;20066;-68
2022/12/02 11:42:34;;;;;;;48.50;17.95;;;1.60;99.90;;;;;;5099318;28;20016;-69
2022/12/02 11:45:36;;;;;;;39.35;16.77;;;1.50;99.90;;;;;;5099606;28;20094;-70
2022/12/02 11:48:15;;;;;;;43.90;17.88;;;1.50;99.90;;;;;;5089207;28;20451;-68
2022/12/02 11:50:42;;;;;;;39.85;17.05;;;1.50;99.90;;;;;;5098887;28;20031;-68
2022/12/02 11:53:19;;;;;;;36.67;17.27;;;1.50;99.90;;;;;;5080890;28;20024;-66
2022/12/02 11:55:52;;;;;;;42.90;16.92;;;1.50;99.90;;;;;;5099105;28;20024;-67
2022/12/02 11:58:27;;;;;;;40.75;19.33;;;1.60;99.90;;;;;;5098749;28;20027;-75
2022/12/02 12:01:17;;;;;;;38.28;18.08;;;1.50;99.90;;;;;;5077272;28;20093;-74
2022/12/02 12:03:50;;;;;;;41.25;19.60;;;1.60;99.90;;;;;;5078766;28;20021;-75
2022/12/02 12:06:33;;;;;;;43.30;18.98;;;1.60;99.90;;;;;;5078276;28;20020;-70
2022/12/02 12:09:11;;;;;;;49.90;23.17;;;1.60;99.90;;;;;;5078360;28;20020;-69
2022/12/02 12:11:39;;;;;;;58.45;24.30;;;1.60;99.90;;;;;;5078784;28;20108;-70
2022/12/02 12:14:12;;;;;;;50.40;22.05;;;1.60;99.90;;;;;;5078155;28;20449;-68
2022/12/02 12:16:42;;;;;;;50.80;22.95;;;1.60;99.90;;;;;;5078715;28;20021;-68
2022/12/02 12:19:12;;;;;;;51.60;22.27;;;1.60;99.90;;;;;;5078172;28;20424;-67
2022/12/02 12:21:51;;;;;;;53.42;23.08;;;1.60;99.90;;;;;;5078414;28;20024;-68
2022/12/02 12:24:20;;;;;;;61.28;24.65;;;1.60;99.90;;;;;;5078667;28;20048;-67
2022/12/02 12:26:50;;;;;;;53.30;23.38;;;1.60;99.90;;;;;;5078556;28;20301;-67
2022/12/02 12:29:18;;;;;;;61.28;26.05;;;1.60;99.90;;;;;;5078684;28;20020;-68
2022/12/02 12:31:45;;;;;;;57.63;26.02;;;1.60;99.90;;;;;;5077921;28;20025;-68
2022/12/02 12:34:15;;;;;;;56.92;25.42;;;1.60;99.90;;;;;;5076729;28;20083;-68
2022/12/02 12:36:43;;;;;;;46.67;20.70;;;1.70;99.90;;;;;;5077788;28;20028;-67
2022/12/02 12:39:11;;;;;;;50.75;20.60;;;1.70;99.90;;;;;;5078409;28;20413;-67
2022/12/02 12:41:38;;;;;;;43.13;18.13;;;1.70;99.90;;;;;;5077641;28;20474;-67
2022/12/02 12:44:06;;;;;;;44.67;19.95;;;1.60;99.90;;;;;;5078224;28;20023;-67
2022/12/02 12:46:34;;;;;;;42.83;19.73;;;1.60;99.90;;;;;;5077559;28;20020;-67
2022/12/02 12:49:02;;;;;;;42.85;18.63;;;1.60;99.90;;;;;;5077714;28;20023;-67
2022/12/02 12:51:29;;;;;;;44.28;19.63;;;1.60;99.90;;;;;;5077719;28;20301;-68
2022/12/02 12:53:57;;;;;;;41.75;19.20;;;1.50;99.90;;;;;;5078008;28;20028;-68
2022/12/02 12:56:24;;;;;;;43.55;18.67;;;1.50;99.90;;;;;;5077322;28;20083;-68
2022/12/02 12:58:52;;;;;;;44.38;19.17;;;1.50;99.90;;;;;;5077427;28;20025;-68